Los Ojos, New Mexico
Current Conditions -  °F | °C
As of 2:35 PM on Wednesday 26 Nov 2014 (Local Time) from KPSO Reporting Station
Clear Clear  
Wind Chill: 48°   Ceiling: Unl
Heat Index: 48°   Visibility: 10mi
Dew Point: 17°   Wind: 3mph
Humidity: 29%   Direction: 210°SSW
Pressure: 30.36"   Gusts: NA
Location:  36.75°N, 106.56°W
Report Text: KPSO 262135Z AUTO 21003KT 10SM CLR 09/M08 A3036 RMK AO2 T00901081
Loading
Personal Weather Stations






























Interactive Weather Map New forecast layout! Learn more

10-Day Weather Forecast

Advertisements
Track Severe Weather on mobile